Time;durP1;ratioP1;P1;durP2;ratioP2;P2;SDS_P1;SDS_P2;PMS_P1;PMS_P2;Temp;Humidity;BMP_temperature;BMP_pressure;BME280_temperature;BME280_humidity;BME280_pressure;Samples;Min_cycle;Max_cycle;Signal;HPM_P1;HPM_P2
2022/01/06 00:02:25;;;;;;;;;17.25;15.75;;;;;7.31;56.59;101432.63;4991894;28;45519;-67
2022/01/06 00:04:50;;;;;;;;;17.00;14.75;;;;;7.40;56.35;101455.19;5000296;28;45178;-65
2022/01/06 00:07:16;;;;;;;;;21.25;16.25;;;;;7.11;56.87;101422.72;4999859;28;44983;-66
2022/01/06 00:09:41;;;;;;;;;17.00;16.00;;;;;6.78;57.17;101388.25;5004969;28;45073;-65
2022/01/06 00:12:10;;;;;;;;;22.50;17.00;;;;;7.14;57.24;101465.38;4995918;28;45218;-66
2022/01/06 00:14:52;;;;;;;;;17.00;15.00;;;;;6.90;57.83;101422.53;5001032;28;44959;-65
2022/01/06 00:25:20;;;;;;;;;18.00;16.25;;;;;6.96;57.06;101428.16;5011929;28;45113;-65
2022/01/06 00:27:45;;;;;;;;;23.25;18.50;;;;;7.24;57.63;101480.06;5002795;28;45262;-66
2022/01/06 00:30:11;;;;;;;;;20.25;17.75;;;;;7.20;57.87;101476.34;5004072;28;45051;-67
2022/01/06 00:32:36;;;;;;;;;25.50;17.00;;;;;7.03;57.70;101447.97;5006674;28;45047;-66
2022/01/06 00:35:02;;;;;;;;;18.25;15.50;;;;;7.17;57.44;101466.47;5011616;28;45162;-65
2022/01/06 00:37:27;;;;;;;;;22.75;16.00;;;;;7.29;56.93;101479.50;5007824;28;45189;-66
2022/01/06 00:39:53;;;;;;;;;21.75;16.00;;;;;7.05;57.28;101449.91;5010671;28;45329;-65
2022/01/06 00:42:18;;;;;;;;;21.50;15.25;;;;;7.28;57.12;101480.31;5002078;28;45053;-63
2022/01/06 00:44:43;;;;;;;;;23.25;18.75;;;;;7.23;57.37;101476.50;5001702;28;45144;-66
2022/01/06 00:47:09;;;;;;;;;11.25;11.25;;;;;7.17;57.27;101462.91;4995172;28;44955;-66
2022/01/06 00:49:34;;;;;;;;;19.25;13.75;;;;;7.36;57.12;101496.66;5002890;28;46473;-65
2022/01/06 00:52:00;;;;;;;;;19.25;12.25;;;;;7.31;57.08;101488.44;4989123;28;45134;-66
2022/01/06 00:54:25;;;;;;;;;15.00;15.00;;;;;7.36;57.05;101499.31;4997480;28;45008;-64
2022/01/06 00:56:51;;;;;;;;;18.75;16.00;;;;;7.21;56.78;101472.88;4997361;28;45240;-64
2022/01/06 00:59:16;;;;;;;;;20.50;16.25;;;;;7.25;57.33;101473.94;4996498;28;45159;-65
2022/01/06 01:01:41;;;;;;;;;18.25;16.50;;;;;7.36;57.06;101497.56;4994273;28;44959;-65
2022/01/06 01:04:07;;;;;;;;;21.50;16.25;;;;;7.33;57.26;101500.06;5004431;28;45026;-66
2022/01/06 01:06:32;;;;;;;;;16.00;16.00;;;;;7.34;57.53;101503.63;4996620;28;45245;-68
2022/01/06 01:08:57;;;;;;;;;18.50;13.00;;;;;7.35;57.57;101497.50;4996457;28;45735;-66
2022/01/06 01:11:23;;;;;;;;;20.25;14.50;;;;;7.18;57.23;101465.63;5005027;28;45018;-65
2022/01/06 01:14:07;;;;;;;;;24.25;18.25;;;;;7.18;57.37;101465.63;4999450;28;45049;-64
2022/01/06 01:16:33;;;;;;;;;17.75;11.75;;;;;7.32;57.18;101490.25;4982745;28;45294;-66
2022/01/06 01:19:03;;;;;;;;;19.25;15.00;;;;;7.30;57.24;101481.28;4999387;28;46307;-65
2022/01/06 01:21:29;;;;;;;;;17.75;15.25;;;;;7.35;56.89;101494.84;5007774;28;45188;-65
2022/01/06 01:23:55;;;;;;;;;17.25;14.25;;;;;7.26;57.16;101482.00;5000771;28;45093;-65
2022/01/06 01:26:22;;;;;;;;;15.00;14.25;;;;;7.36;57.68;101496.66;5002799;28;45055;-65
2022/01/06 01:28:47;;;;;;;;;30.00;18.75;;;;;7.36;57.55;101496.66;5004122;28;45060;-65
2022/01/06 01:33:43;;;;;;;;;25.25;17.00;;;;;7.30;57.70;101496.34;4996734;28;45000;-65
2022/01/06 01:36:09;;;;;;;;;14.75;13.75;;;;;6.83;57.18;101413.34;5000445;28;45830;-66
2022/01/06 01:38:37;;;;;;;;;19.50;15.00;;;;;7.27;57.49;101502.41;4997064;28;45497;-66
2022/01/06 01:41:03;;;;;;;;;15.50;14.25;;;;;7.21;57.24;101488.81;4997956;28;45181;-65
2022/01/06 01:43:29;;;;;;;;;16.50;13.75;;;;;7.27;57.14;101501.50;5000148;28;45311;-65
2022/01/06 01:45:57;;;;;;;;;20.00;16.00;;;;;6.97;57.37;101451.25;4990721;28;45264;-66
2022/01/06 01:48:29;;;;;;;;;15.75;13.00;;;;;7.24;57.50;101506.66;5002681;28;45595;-66
2022/01/06 01:50:54;;;;;;;;;21.75;19.50;;;;;7.16;56.97;101501.84;4997459;28;45157;-66
2022/01/06 01:53:20;;;;;;;;;21.75;18.50;;;;;6.82;57.26;101438.06;4999966;28;45473;-65
2022/01/06 01:55:45;;;;;;;;;16.00;15.00;;;;;6.92;57.31;101456.31;4993322;28;45313;-66
2022/01/06 01:58:11;;;;;;;;;19.25;13.50;;;;;7.22;57.31;101508.31;4992846;28;45587;-65
2022/01/06 02:00:37;;;;;;;;;22.50;16.75;;;;;7.19;57.27;101510.00;4997871;28;45365;-65
2022/01/06 02:03:03;;;;;;;;;21.75;15.00;;;;;7.14;57.78;101511.50;5002860;28;45046;-66
2022/01/06 02:05:29;;;;;;;;;18.50;13.50;;;;;7.14;57.78;101521.19;4997064;28;45403;-65
2022/01/06 02:07:58;;;;;;;;;18.50;16.00;;;;;6.87;57.83;101487.03;4992969;28;46531;-65
2022/01/06 02:10:24;;;;;;;;;34.00;21.00;;;;;6.81;57.92;101497.31;4996565;28;45267;-65
2022/01/06 02:12:51;;;;;;;;;14.25;13.75;;;;;6.86;58.46;101524.13;4998056;28;45409;-65
2022/01/06 02:15:16;;;;;;;;;18.50;14.75;;;;;6.74;58.47;101519.97;5000059;28;45220;-65
2022/01/06 02:17:43;;;;;;;;;17.75;15.75;;;;;6.50;59.16;101498.34;4988423;28;46189;-65
2022/01/06 02:20:14;;;;;;;;;18.00;13.50;;;;;6.53;59.19;101530.34;4997061;28;45219;-64
2022/01/06 02:22:40;;;;;;;;;15.00;14.00;;;;;6.55;58.93;101511.84;5004604;28;45571;-64
2022/01/06 02:25:17;;;;;;;;;18.50;15.25;;;;;6.69;59.28;101531.19;4987940;28;45568;-65
2022/01/06 02:27:46;;;;;;;;;18.00;16.50;;;;;6.66;59.20;101510.69;4990885;28;45508;-64
2022/01/06 02:30:11;;;;;;;;;15.00;13.75;;;;;6.67;59.00;101531.09;4981872;28;45504;-65
2022/01/06 02:32:37;;;;;;;;;15.25;14.25;;;;;6.50;59.17;101506.31;4979188;28;45582;-64
2022/01/06 02:35:10;;;;;;;;;17.50;15.00;;;;;6.51;58.98;101500.13;4977414;28;45594;-70
2022/01/06 02:37:35;;;;;;;;;15.50;14.50;;;;;6.61;58.95;101509.53;4991519;28;46386;-67
2022/01/06 02:40:01;;;;;;;;;19.50;15.75;;;;;6.80;58.68;101525.63;5003385;28;45076;-68
2022/01/06 02:42:28;;;;;;;;;20.50;18.00;;;;;6.69;58.78;101512.59;4986274;28;45607;-64
2022/01/06 02:44:53;;;;;;;;;25.25;19.25;;;;;6.33;58.81;101468.19;4990710;28;45787;-66
2022/01/06 02:47:19;;;;;;;;;13.25;13.00;;;;;6.34;59.51;101503.63;4991312;28;45735;-65
2022/01/06 02:49:44;;;;;;;;;13.75;13.75;;;;;6.18;59.91;101485.94;4996691;28;45243;-66
2022/01/06 02:52:10;;;;;;;;;14.75;13.25;;;;;6.27;60.12;101523.59;4998425;28;44877;-65
2022/01/06 02:54:35;;;;;;;;;15.75;14.00;;;;;6.27;60.50;101523.59;4995641;28;45216;-66
2022/01/06 02:57:03;;;;;;;;;14.50;14.50;;;;;6.27;59.81;101526.25;4995069;28;45275;-64
2022/01/06 02:59:28;;;;;;;;;16.50;14.00;;;;;6.48;59.83;101536.22;5002687;28;45157;-65
2022/01/06 03:01:53;;;;;;;;;18.75;15.00;;;;;6.35;59.90;101505.44;5001803;28;45210;-65
2022/01/06 03:04:20;;;;;;;;;14.75;14.75;;;;;6.55;59.57;101527.75;4993898;28;45243;-67
2022/01/06 03:06:46;;;;;;;;;11.25;11.25;;;;;6.38;59.42;101502.94;4993030;28;45158;-65
2022/01/06 03:09:11;;;;;;;;;15.00;15.00;;;;;6.72;59.44;101550.84;4998157;28;45049;-67
2022/01/06 03:11:41;;;;;;;;;18.75;14.25;;;;;6.58;59.38;101507.63;4985337;28;45781;-66
2022/01/06 03:14:07;;;;;;;;;13.25;11.50;;;;;6.26;59.12;101455.41;4998012;28;45407;-66
2022/01/06 03:16:32;;;;;;;;;19.25;14.00;;;;;6.62;58.50;101516.66;4999718;28;46244;-65
2022/01/06 03:18:58;;;;;;;;;13.50;12.75;;;;;6.86;59.12;101562.22;4995492;28;45116;-65
2022/01/06 03:21:23;;;;;;;;;12.00;12.00;;;;;6.68;59.07;101519.63;5003687;28;45357;-65
2022/01/06 03:23:48;;;;;;;;;15.50;12.75;;;;;6.92;58.78;101551.94;5001868;28;45512;-66
2022/01/06 03:26:14;;;;;;;;;14.00;10.00;;;;;6.94;58.36;101550.28;4997013;28;47532;-67
2022/01/06 03:28:39;;;;;;;;;17.75;15.00;;;;;7.04;58.46;101557.00;4990035;28;44840;-65
2022/01/06 03:31:05;;;;;;;;;13.75;11.25;;;;;7.05;58.12;101566.81;4998483;28;45308;-66
2022/01/06 03:33:30;;;;;;;;;16.50;13.75;;;;;6.97;58.10;101542.47;4997110;28;45166;-65
2022/01/06 03:35:55;;;;;;;;;13.25;13.25;;;;;6.92;58.14;101546.63;5000723;28;45435;-65
2022/01/06 03:38:21;;;;;;;;;16.00;12.75;;;;;6.95;58.28;101549.44;4996397;28;45046;-66
2022/01/06 03:40:46;;;;;;;;;15.75;14.00;;;;;6.98;58.48;101556.69;5006317;28;45127;-65
2022/01/06 03:43:11;;;;;;;;;18.50;13.25;;;;;7.00;58.13;101560.34;5003430;28;45150;-65
2022/01/06 03:45:37;;;;;;;;;13.00;13.00;;;;;7.01;58.24;101554.16;4998861;28;44911;-65
2022/01/06 03:48:06;;;;;;;;;9.00;9.00;;;;;6.87;58.49;101516.25;4996170;28;45117;-65
2022/01/06 03:50:31;;;;;;;;;13.00;12.75;;;;;6.91;58.02;101539.47;4997619;28;45381;-65
2022/01/06 03:52:57;;;;;;;;;15.75;13.75;;;;;6.93;58.24;101568.78;5002052;28;45213;-65
2022/01/06 03:55:23;;;;;;;;;17.50;10.50;;;;;6.77;58.29;101540.50;4987612;28;45561;-64
2022/01/06 03:57:48;;;;;;;;;8.00;7.00;;;;;6.93;58.30;101567.06;4979798;28;45407;-66
2022/01/06 04:00:18;;;;;;;;;35.25;28.75;;;;;6.98;58.66;101575.28;4990669;28;45456;-66
2022/01/06 04:02:44;;;;;;;;;13.25;9.25;;;;;6.93;58.27;101555.50;4997345;28;45012;-66
2022/01/06 04:05:11;;;;;;;;;17.50;11.50;;;;;7.10;58.31;101575.94;4998596;28;46292;-66
2022/01/06 04:07:37;;;;;;;;;14.00;14.00;;;;;7.07;57.56;101561.56;4999146;28;45129;-67
2022/01/06 04:10:04;;;;;;;;;15.50;10.00;;;;;7.03;58.00;101568.47;5005088;28;45317;-66
2022/01/06 04:12:30;;;;;;;;;16.50;11.25;;;;;6.95;58.33;101576.00;5008413;28;45070;-66
2022/01/06 04:14:56;;;;;;;;;8.75;8.00;;;;;6.85;58.27;101567.44;4995531;28;46610;-67
2022/01/06 04:17:21;;;;;;;;;17.50;9.00;;;;;6.77;58.66;101575.91;4995622;28;44972;-66
2022/01/06 04:19:46;;;;;;;;;16.75;9.00;;;;;6.71;58.89;101572.91;4995732;28;44960;-65
2022/01/06 04:22:11;;;;;;;;;16.75;8.00;;;;;6.65;59.04;101559.31;5008040;28;44905;-66
2022/01/06 04:24:37;;;;;;;;;9.00;8.00;;;;;6.62;58.97;101549.44;5000562;28;45495;-67
2022/01/06 04:27:02;;;;;;;;;16.25;10.00;;;;;6.63;59.09;101550.34;5000709;28;45129;-66
2022/01/06 04:29:28;;;;;;;;;15.00;12.00;;;;;6.79;59.18;101576.00;4994995;28;44912;-66
2022/01/06 04:31:53;;;;;;;;;9.00;9.00;;;;;6.63;59.13;101534.41;4997571;28;45393;-65
2022/01/06 04:34:19;;;;;;;;;10.75;8.00;;;;;6.86;59.06;101570.19;4993864;28;45448;-67
2022/01/06 04:36:50;;;;;;;;;12.25;9.50;;;;;6.80;58.88;101570.78;4997522;28;45050;-65
2022/01/06 04:39:15;;;;;;;;;13.75;10.00;;;;;6.76;59.01;101571.44;5012761;28;45365;-66
2022/01/06 04:41:41;;;;;;;;;14.75;10.75;;;;;6.66;59.20;101557.56;4999677;28;45336;-68
2022/01/06 04:44:07;;;;;;;;;9.00;8.00;;;;;6.71;59.18;101580.88;5011232;28;45221;-65
2022/01/06 04:46:32;;;;;;;;;14.00;9.75;;;;;6.64;59.33;101581.38;5008504;28;45019;-64
2022/01/06 04:48:57;;;;;;;;;11.00;10.75;;;;;6.68;59.27;101579.81;4996211;28;44925;-66
2022/01/06 04:51:23;;;;;;;;;8.25;6.75;;;;;6.75;59.25;101574.03;4995496;28;45505;-65
2022/01/06 04:53:48;;;;;;;;;12.75;9.25;;;;;6.77;58.94;101581.22;4994910;28;44947;-64
2022/01/06 04:56:13;;;;;;;;;1.25;0.00;;;;;6.79;58.89;101576.91;4980904;28;44885;-65
2022/01/06 04:58:39;;;;;;;;;12.50;9.75;;;;;6.75;58.55;101566.06;4995070;28;44998;-65
2022/01/06 05:01:04;;;;;;;;;9.25;8.50;;;;;6.38;58.77;101502.94;5002345;28;45547;-66
2022/01/06 05:03:30;;;;;;;;;8.75;7.50;;;;;6.78;58.84;101576.81;4998748;28;45821;-66
2022/01/06 05:05:55;;;;;;;;;12.00;9.50;;;;;6.82;58.83;101593.03;4997155;28;45045;-66
2022/01/06 05:08:21;;;;;;;;;11.00;8.00;;;;;6.66;58.95;101555.81;5000251;28;45603;-65
2022/01/06 05:10:46;;;;;;;;;8.25;8.00;;;;;6.80;58.93;101584.06;5000841;28;45252;-65
2022/01/06 05:13:11;;;;;;;;;12.25;7.50;;;;;6.84;58.67;101585.13;4990650;28;45559;-66
2022/01/06 05:15:37;;;;;;;;;8.25;8.25;;;;;6.70;58.15;101547.22;4997665;28;45420;-67
2022/01/06 05:18:02;;;;;;;;;9.75;8.75;;;;;6.59;58.23;101540.41;4990738;28;45204;-65
2022/01/06 05:20:28;;;;;;;;;10.00;8.00;;;;;6.79;58.12;101571.59;4994659;28;45236;-65
2022/01/06 05:22:57;;;;;;;;;8.75;8.00;;;;;6.89;58.25;101599.59;4998786;28;45293;-66
2022/01/06 05:25:26;;;;;;;;;7.75;5.75;;;;;6.63;58.07;101567.22;5004202;28;45159;-66
2022/01/06 05:27:53;;;;;;;;;8.25;8.00;;;;;6.87;58.41;101597.69;5001782;28;45411;-66
2022/01/06 05:30:19;;;;;;;;;8.25;8.25;;;;;6.95;58.57;101605.25;4999368;28;46105;-65
2022/01/06 05:32:44;;;;;;;;;11.25;11.25;;;;;6.78;58.01;101571.50;5003706;28;48028;-66
2022/01/06 05:35:10;;;;;;;;;14.00;9.25;;;;;6.86;58.91;101585.22;4998486;28;45164;-66
2022/01/06 05:37:35;;;;;;;;;9.00;9.00;;;;;7.04;58.49;101603.91;4993677;28;45027;-66
2022/01/06 05:40:01;;;;;;;;;11.25;9.50;;;;;7.05;58.35;101614.63;4999546;28;45254;-67
2022/01/06 05:42:26;;;;;;;;;16.25;10.50;;;;;7.05;58.14;101619.03;4994117;28;45452;-66
2022/01/06 05:44:51;;;;;;;;;18.75;13.25;;;;;6.97;58.82;101602.66;4991497;28;45356;-68
2022/01/06 05:47:17;;;;;;;;;10.25;8.25;;;;;7.06;58.38;101619.13;5013019;28;45134;-65
2022/01/06 05:49:42;;;;;;;;;11.00;11.00;;;;;7.03;58.46;101615.34;4991183;28;45152;-65
2022/01/06 05:52:08;;;;;;;;;14.25;13.00;;;;;7.04;58.27;101627.81;4996531;28;45517;-67
2022/01/06 05:54:33;;;;;;;;;11.50;9.50;;;;;6.99;58.34;101612.53;4991099;28;45261;-66
2022/01/06 05:56:58;;;;;;;;;8.50;8.00;;;;;7.03;58.12;101623.34;4994269;28;45548;-66
2022/01/06 05:59:24;;;;;;;;;19.25;13.75;;;;;7.01;58.28;101621.53;4991716;28;45278;-66
2022/01/06 06:01:49;;;;;;;;;10.00;7.00;;;;;7.01;58.25;101625.91;4996877;28;46016;-67
2022/01/06 06:04:15;;;;;;;;;21.25;12.00;;;;;7.04;58.32;101626.06;5007071;28;44920;-67
2022/01/06 06:06:40;;;;;;;;;17.25;9.75;;;;;6.69;58.34;101574.59;4997436;28;45113;-67
2022/01/06 06:09:06;;;;;;;;;15.00;10.75;;;;;7.04;58.33;101646.44;4997423;28;45493;-66
2022/01/06 06:11:32;;;;;;;;;9.00;8.25;;;;;7.02;57.86;101651.66;4998240;28;46379;-66
2022/01/06 06:13:57;;;;;;;;;12.75;12.75;;;;;7.00;58.24;101650.66;4977903;28;45410;-65
2022/01/06 06:16:22;;;;;;;;;13.25;11.25;;;;;6.85;58.38;101617.91;4982620;28;45153;-65
2022/01/06 06:18:48;;;;;;;;;7.00;7.00;;;;;7.01;58.53;101657.78;5000741;28;45006;-65
2022/01/06 06:21:13;;;;;;;;;11.00;10.50;;;;;6.78;58.60;101614.94;5008972;28;45204;-65
2022/01/06 06:23:38;;;;;;;;;15.25;12.25;;;;;6.93;57.96;101651.13;5003191;28;45297;-65
2022/01/06 06:26:04;;;;;;;;;17.75;15.50;;;;;6.87;58.19;101643.75;4997875;28;45297;-66
2022/01/06 06:28:29;;;;;;;;;19.25;14.00;;;;;6.97;58.28;101658.47;4997053;28;45341;-66
2022/01/06 06:30:54;;;;;;;;;14.50;10.75;;;;;6.82;58.08;101640.84;4997775;28;45622;-66
2022/01/06 06:33:20;;;;;;;;;13.00;10.00;;;;;6.86;57.78;101651.63;4996777;28;45551;-67
2022/01/06 06:35:45;;;;;;;;;10.50;10.00;;;;;6.78;59.02;101649.47;4997085;28;45136;-66
2022/01/06 06:38:10;;;;;;;;;14.00;11.75;;;;;6.81;58.75;101657.63;4997434;28;45651;-65
2022/01/06 06:40:36;;;;;;;;;14.75;13.00;;;;;6.91;58.62;101671.41;5005750;28;45452;-65
2022/01/06 06:43:01;;;;;;;;;10.75;10.50;;;;;6.79;58.81;101651.28;5002113;28;44896;-65
2022/01/06 06:45:27;;;;;;;;;14.00;11.75;;;;;6.93;58.43;101680.34;4981411;28;45517;-66
2022/01/06 06:47:52;;;;;;;;;15.50;14.25;;;;;6.94;58.46;101680.44;4977074;28;45447;-66
2022/01/06 06:50:18;;;;;;;;;14.25;10.50;;;;;6.98;58.65;101674.50;5006243;28;46271;-68
2022/01/06 06:52:44;;;;;;;;;12.25;10.25;;;;;6.85;58.30;101640.09;4998140;28;45702;-65
2022/01/06 06:55:11;;;;;;;;;19.00;11.00;;;;;7.01;57.79;101658.72;5010507;28;45207;-69
2022/01/06 06:57:36;;;;;;;;;10.50;9.75;;;;;7.12;58.30;101675.25;5005621;28;45168;-68
2022/01/06 07:00:05;;;;;;;;;11.00;9.75;;;;;6.58;58.23;101574.00;5007795;28;45444;-67
2022/01/06 07:02:31;;;;;;;;;12.50;8.00;;;;;7.15;57.59;101672.75;5002894;28;45134;-66
2022/01/06 07:04:57;;;;;;;;;19.00;15.75;;;;;6.95;57.61;101642.44;4998471;28;44966;-65
2022/01/06 07:07:23;;;;;;;;;16.50;13.00;;;;;7.09;58.06;101671.50;4994891;28;45372;-63
2022/01/06 07:09:48;;;;;;;;;17.50;14.50;;;;;7.20;57.54;101679.22;5001486;28;45439;-64
2022/01/06 07:12:14;;;;;;;;;15.00;15.00;;;;;7.07;57.78;101642.19;4994306;28;45238;-64
2022/01/06 07:14:39;;;;;;;;;16.25;14.00;;;;;7.30;58.00;101683.31;4985096;28;45473;-64
2022/01/06 07:17:05;;;;;;;;;11.25;9.00;;;;;7.32;57.76;101684.31;5002154;28;44982;-68
2022/01/06 07:19:30;;;;;;;;;13.50;8.75;;;;;7.36;57.41;101683.66;4992811;28;45553;-67
2022/01/06 07:21:56;;;;;;;;;14.25;13.00;;;;;7.38;57.79;101692.63;4983051;28;45319;-66
2022/01/06 07:24:21;;;;;;;;;28.25;18.00;;;;;7.43;57.75;101682.25;5001673;28;45192;-65
2022/01/06 07:26:46;;;;;;;;;18.75;16.50;;;;;7.36;57.19;101682.75;5000303;28;45324;-67
2022/01/06 07:29:12;;;;;;;;;19.75;18.00;;;;;7.30;57.29;101655.81;4990861;28;46051;-65
2022/01/06 07:31:37;;;;;;;;;16.25;10.75;;;;;7.44;57.56;101675.16;4974368;28;45519;-65
2022/01/06 07:34:02;;;;;;;;;15.75;10.75;;;;;7.52;58.08;101681.81;4976714;28;45356;-65
2022/01/06 07:36:28;;;;;;;;;23.75;16.00;;;;;7.14;57.86;101615.13;4974815;28;45321;-64
2022/01/06 07:38:53;;;;;;;;;19.75;15.50;;;;;7.44;57.08;101661.88;4974434;28;46645;-63
2022/01/06 07:41:18;;;;;;;;;12.75;12.75;;;;;7.47;57.72;101673.59;4974367;28;45376;-66
2022/01/06 07:43:44;;;;;;;;;10.50;9.25;;;;;7.34;57.17;101666.72;4978172;28;45455;-66
2022/01/06 07:46:09;;;;;;;;;55.75;44.25;;;;;7.35;57.29;101672.94;4978786;28;45427;-64
2022/01/06 07:48:48;;;;;;;;;19.75;16.00;;;;;7.41;56.83;101686.56;4981368;28;46889;-64
2022/01/06 07:51:15;;;;;;;;;18.00;13.50;;;;;7.43;57.05;101700.84;4974902;28;45454;-64
2022/01/06 07:53:41;;;;;;;;;15.75;14.25;;;;;7.47;57.00;101708.16;4980720;28;45298;-63
2022/01/06 07:56:06;;;;;;;;;14.50;13.00;;;;;7.43;56.96;101684.00;4978112;28;48980;-65
2022/01/06 07:58:32;;;;;;;;;16.75;13.00;;;;;7.40;57.50;101679.41;4982923;28;45423;-67
2022/01/06 08:01:00;;;;;;;;;14.75;13.25;;;;;7.52;56.26;101689.78;4992144;28;45471;-63
2022/01/06 08:03:26;;;;;;;;;23.00;15.00;;;;;7.58;56.59;101711.41;4990118;28;45734;-70
2022/01/06 08:05:51;;;;;;;;;15.75;15.75;;;;;7.51;56.43;101695.97;4981643;28;45557;-69
2022/01/06 08:08:16;;;;;;;;;15.50;10.75;;;;;7.49;57.06;101685.25;4987240;28;45611;-70
2022/01/06 08:10:42;;;;;;;;;14.75;11.75;;;;;7.40;56.51;101658.16;4982275;28;45292;-67
2022/01/06 08:13:10;;;;;;;;;14.25;12.75;;;;;7.21;56.22;101624.34;4986435;28;45432;-68
2022/01/06 08:15:35;;;;;;;;;17.00;14.25;;;;;7.67;56.32;101706.59;4980807;28;45482;-68
2022/01/06 08:18:00;;;;;;;;;23.25;16.75;;;;;7.69;56.31;101701.34;4989137;28;46031;-69
2022/01/06 08:20:26;;;;;;;;;15.75;14.50;;;;;7.53;56.61;101692.53;4971866;28;45460;-68
2022/01/06 08:22:51;;;;;;;;;12.75;10.00;;;;;7.62;56.62;101704.50;4995976;28;45473;-69
2022/01/06 08:25:17;;;;;;;;;12.50;11.75;;;;;7.59;56.21;101688.38;4997797;28;45343;-69
2022/01/06 08:27:42;;;;;;;;;10.50;8.25;;;;;7.55;56.42;101687.31;4984726;28;45738;-70
2022/01/06 08:30:08;;;;;;;;;15.00;11.25;;;;;7.74;55.89;101706.06;4988905;28;46181;-69
2022/01/06 08:32:34;;;;;;;;;13.50;10.25;;;;;7.56;55.92;101684.72;4992574;28;45461;-69
2022/01/06 08:35:00;;;;;;;;;14.75;11.50;;;;;7.75;55.89;101714.97;4985607;28;45667;-70
2022/01/06 08:37:25;;;;;;;;;14.00;9.25;;;;;7.77;56.04;101723.03;4985649;28;46125;-70
2022/01/06 08:39:50;;;;;;;;;17.00;12.25;;;;;7.63;56.16;101698.34;4988471;28;45605;-70
2022/01/06 08:42:16;;;;;;;;;16.00;13.25;;;;;7.67;56.53;101714.56;4996141;28;45553;-69
2022/01/06 08:44:41;;;;;;;;;10.00;10.00;;;;;7.50;56.17;101686.16;4983464;28;45373;-69
2022/01/06 08:47:07;;;;;;;;;16.75;13.50;;;;;7.66;56.74;101718.06;5000142;28;45456;-68
2022/01/06 08:49:33;;;;;;;;;11.00;11.00;;;;;7.60;55.86;101717.72;4984569;28;45559;-69
2022/01/06 08:51:59;;;;;;;;;14.00;11.00;;;;;7.59;56.23;101696.34;4986622;28;45309;-69
2022/01/06 08:54:24;;;;;;;;;32.00;20.50;;;;;7.64;56.38;101698.44;4994765;28;45601;-68
2022/01/06 08:56:50;;;;;;;;;15.75;15.25;;;;;7.82;56.32;101726.84;4993737;28;45381;-70
2022/01/06 08:59:15;;;;;;;;;16.00;15.00;;;;;7.88;56.44;101727.16;4987249;28;45322;-69
2022/01/06 09:01:41;;;;;;;;;18.00;12.50;;;;;7.96;55.43;101727.59;4987887;28;45468;-70
2022/01/06 09:04:06;;;;;;;;;16.00;9.00;;;;;7.98;55.63;101723.25;4994068;28;45351;-71
2022/01/06 09:06:32;;;;;;;;;18.25;14.00;;;;;7.96;55.16;101730.25;4989235;28;45522;-70
2022/01/06 09:08:57;;;;;;;;;20.50;17.50;;;;;7.84;55.58;101728.75;4995499;28;45119;-70
2022/01/06 09:11:23;;;;;;;;;14.00;10.75;;;;;7.66;55.67;101709.16;4995658;28;45436;-71
2022/01/06 09:13:48;;;;;;;;;17.25;15.50;;;;;7.79;55.97;101730.28;4989890;28;45362;-69
2022/01/06 09:16:13;;;;;;;;;19.75;17.25;;;;;7.53;55.98;101687.22;4995387;28;45420;-69
2022/01/06 09:18:40;;;;;;;;;45.75;36.25;;;;;7.86;55.52;101729.75;4985973;28;45492;-69
2022/01/06 09:21:07;;;;;;;;;18.25;16.75;;;;;7.99;55.04;101744.63;4984910;28;48617;-71
2022/01/06 09:23:33;;;;;;;;;15.50;15.50;;;;;7.73;54.99;101688.28;4988305;28;46274;-68
2022/01/06 09:25:59;;;;;;;;;22.75;16.00;;;;;8.05;55.48;101736.03;4995053;28;45471;-68
2022/01/06 09:28:24;;;;;;;;;38.25;31.50;;;;;8.01;54.62;101707.44;4995379;28;45503;-68
2022/01/06 09:30:55;;;;;;;;;17.00;15.75;;;;;8.07;54.41;101729.97;4994490;28;45352;-70
2022/01/06 09:33:21;;;;;;;;;15.50;14.50;;;;;7.71;54.57;101660.69;4995268;28;45667;-69
2022/01/06 09:35:47;;;;;;;;;13.25;11.50;;;;;8.04;54.29;101720.91;4993994;28;46009;-71
2022/01/06 09:38:13;;;;;;;;;22.00;18.00;;;;;8.20;54.29;101741.25;4985989;28;45483;-68
2022/01/06 09:40:40;;;;;;;;;20.25;17.00;;;;;8.20;54.39;101743.91;4994278;28;45996;-70
2022/01/06 09:43:06;;;;;;;;;17.75;15.50;;;;;8.22;53.66;101748.50;4994904;28;45536;-69
2022/01/06 09:45:33;;;;;;;;;21.00;16.25;;;;;8.18;54.77;101743.81;4990525;28;46250;-68
2022/01/06 09:47:59;;;;;;;;;18.75;17.25;;;;;8.21;54.20;101738.66;4974884;28;45389;-70
2022/01/06 09:50:24;;;;;;;;;20.50;15.00;;;;;8.27;54.05;101754.97;4992092;28;45326;-69
2022/01/06 09:52:51;;;;;;;;;24.25;18.00;;;;;8.34;54.00;101761.53;4992830;28;45554;-69
2022/01/06 09:55:16;;;;;;;;;15.75;13.00;;;;;8.38;53.64;101751.94;4989336;28;46595;-69
2022/01/06 09:57:53;;;;;;;;;29.25;22.00;;;;;8.41;54.42;101755.66;4983170;28;45485;-68
2022/01/06 10:00:19;;;;;;;;;16.75;14.25;;;;;8.43;54.17;101750.44;4977969;28;45434;-70
2022/01/06 10:02:53;;;;;;;;;21.75;17.75;;;;;8.55;54.03;101766.16;4976680;28;45548;-69
2022/01/06 10:05:18;;;;;;;;;13.75;11.25;;;;;8.59;53.28;101763.72;4980650;28;46415;-69
2022/01/06 10:07:44;;;;;;;;;15.00;12.75;;;;;8.44;53.05;101731.88;4988649;28;45440;-68
2022/01/06 10:10:12;;;;;;;;;19.75;15.25;;;;;8.65;53.87;101768.47;4986427;28;45699;-68
2022/01/06 10:12:39;;;;;;;;;15.00;12.00;;;;;8.54;53.34;101757.25;4986226;28;45376;-68
2022/01/06 10:15:26;;;;;;;;;11.50;10.25;;;;;8.66;53.05;101759.59;4997542;28;45412;-71
2022/01/06 10:17:52;;;;;;;;;15.25;11.75;;;;;8.71;53.17;101770.50;4992176;28;45362;-70
2022/01/06 10:20:28;;;;;;;;;18.75;11.75;;;;;8.75;53.26;101762.75;4994095;28;45401;-69
2022/01/06 10:22:55;;;;;;;;;14.25;12.50;;;;;8.80;53.26;101760.31;5001789;28;45202;-69
2022/01/06 10:25:23;;;;;;;;;19.75;18.00;;;;;8.86;53.14;101765.97;4995686;28;45315;-71
2022/01/06 10:27:49;;;;;;;;;24.25;18.00;;;;;8.89;53.13;101762.53;4992364;28;45564;-74
2022/01/06 10:30:16;;;;;;;;;21.25;19.50;;;;;8.91;53.28;101755.50;5001318;28;45144;-71
2022/01/06 10:32:42;;;;;;;;;16.00;11.50;;;;;8.75;52.29;101727.22;4987817;28;45288;-74
2022/01/06 10:35:09;;;;;;;;;16.00;14.00;;;;;8.88;52.59;101758.94;4991696;28;46814;-73
2022/01/06 10:37:40;;;;;;;;;15.75;11.50;;;;;8.82;52.37;101764.88;4999260;28;45196;-71
2022/01/06 10:40:24;;;;;;;;;18.00;12.00;;;;;8.79;51.83;101761.16;5003100;28;45208;-73
2022/01/06 10:42:53;;;;;;;;;22.50;13.25;;;;;8.51;51.99;101732.22;4999869;28;45058;-74
2022/01/06 10:45:24;;;;;;;;;12.25;12.25;;;;;8.59;52.58;101746.81;4976379;28;45915;-73
2022/01/06 10:47:57;;;;;;;;;13.25;12.25;;;;;8.70;52.73;101764.28;4984227;28;45448;-73
2022/01/06 10:50:28;;;;;;;;;12.00;10.00;;;;;8.64;52.24;101754.19;4964393;28;45548;-73
2022/01/06 10:53:00;;;;;;;;;14.00;9.75;;;;;8.71;52.42;101750.13;4991720;28;45531;-74
2022/01/06 10:55:29;;;;;;;;;14.25;10.00;;;;;8.77;52.29;101752.16;4988429;28;46534;-72
2022/01/06 10:58:03;;;;;;;;;14.00;11.50;;;;;8.88;52.50;101750.06;4978264;28;45484;-73
2022/01/06 11:00:41;;;;;;;;;17.75;14.00;;;;;9.00;52.79;101746.22;4983565;28;45691;-74
2022/01/06 11:03:16;;;;;;;;;20.25;18.00;;;;;8.95;51.76;101725.50;4980987;28;46089;-75
2022/01/06 11:05:53;;;;;;;;;17.00;16.50;;;;;8.95;51.20;101707.75;4978472;28;45821;-75
2022/01/06 11:08:27;;;;;;;;;14.25;10.00;;;;;9.18;51.60;101739.94;4980257;28;45569;-74
2022/01/06 11:13:41;;;;;;;;;10.25;8.75;;;;;9.19;51.09;101732.03;4975092;28;45479;-73
2022/01/06 11:16:09;;;;;;;;;15.50;12.50;;;;;9.14;50.50;101717.56;4988968;28;45491;-74
2022/01/06 11:18:39;;;;;;;;;24.75;17.50;;;;;9.18;51.59;101714.19;4982634;28;45507;-73
2022/01/06 11:21:09;;;;;;;;;17.25;16.50;;;;;9.10;51.71;101682.69;4989814;28;45416;-75
2022/01/06 11:23:36;;;;;;;;;18.00;14.25;;;;;9.38;50.61;101717.78;4977701;28;45566;-74
2022/01/06 11:26:15;;;;;;;;;30.25;30.25;;;;;9.20;51.14;101659.19;4959791;28;47490;-76
2022/01/06 11:28:43;;;;;;;;;12.25;10.50;;;;;9.45;49.85;101688.75;4983607;28;45408;-74
2022/01/06 11:31:16;;;;;;;;;13.75;12.25;;;;;9.55;50.33;101712.31;4982123;28;45465;-74